Time;durP1;ratioP1;P1;durP2;ratioP2;P2;SDS_P1;SDS_P2;PMS_P1;PMS_P2;Temp;Humidity;BMP_temperature;BMP_pressure;BME280_temperature;BME280_humidity;BME280_pressure;Samples;Min_cycle;Max_cycle;Signal;HPM_P1;HPM_P2
2024/02/29 00:01:49;;;;;;;16.52;8.98;;;;;;;;;;6246016;28;20130;-79
2024/02/29 00:04:51;;;;;;;13.23;7.97;;;;;;;;;;6279360;28;20052;-80
2024/02/29 00:07:54;;;;;;;14.07;8.20;;;;;;;;;;6263528;28;20533;-80
2024/02/29 00:10:56;;;;;;;16.98;9.63;;;;;;;;;;6261415;28;20617;-80
2024/02/29 00:14:01;;;;;;;21.65;10.65;;;;;;;;;;6246321;28;20059;-80
2024/02/29 00:17:05;;;;;;;18.58;9.25;;;;;;;;;;6282220;28;20053;-80
2024/02/29 00:20:08;;;;;;;15.93;9.23;;;;;;;;;;6255234;28;20055;-80
2024/02/29 00:23:11;;;;;;;16.85;10.35;;;;;;;;;;6235693;28;20062;-80
2024/02/29 00:26:14;;;;;;;18.23;9.55;;;;;;;;;;6266085;28;20040;-80
2024/02/29 00:29:17;;;;;;;24.05;9.20;;;;;;;;;;6258258;28;20132;-79
2024/02/29 00:32:19;;;;;;;14.48;8.82;;;;;;;;;;6262841;28;20041;-79
2024/02/29 00:35:22;;;;;;;14.05;8.20;;;;;;;;;;6280029;28;20048;-81
2024/02/29 00:38:26;;;;;;;17.25;7.88;;;;;;;;;;6250776;28;20715;-80
2024/02/29 00:41:29;;;;;;;19.92;9.15;;;;;;;;;;6282094;28;20072;-80
2024/02/29 00:44:31;;;;;;;17.23;9.55;;;;;;;;;;6271880;28;20040;-78
2024/02/29 00:47:33;;;;;;;14.88;9.55;;;;;;;;;;6272464;28;20040;-80
2024/02/29 00:50:36;;;;;;;17.42;9.60;;;;;;;;;;6245416;28;20044;-80
2024/02/29 00:53:38;;;;;;;17.38;9.32;;;;;;;;;;6263214;28;20125;-80
2024/02/29 00:56:40;;;;;;;16.35;8.35;;;;;;;;;;6241136;28;20036;-80
2024/02/29 00:59:42;;;;;;;14.50;8.57;;;;;;;;;;6232302;28;20052;-79
2024/02/29 01:02:44;;;;;;;16.88;8.82;;;;;;;;;;6262858;28;20867;-79
2024/02/29 01:05:48;;;;;;;15.02;8.85;;;;;;;;;;6259722;28;20573;-79
2024/02/29 01:08:50;;;;;;;16.02;9.35;;;;;;;;;;6270874;28;20040;-79
2024/02/29 01:11:53;;;;;;;16.80;9.13;;;;;;;;;;6252871;28;20446;-79
2024/02/29 01:14:57;;;;;;;15.13;9.43;;;;;;;;;;6278601;28;20049;-80
2024/02/29 01:18:08;;;;;;;21.15;9.23;;;;;;;;;;6269458;28;20033;-79
2024/02/29 01:21:10;;;;;;;18.67;11.57;;;;;;;;;;6265794;28;20037;-80
2024/02/29 01:24:12;;;;;;;19.92;10.63;;;;;;;;;;6261143;28;20053;-79
2024/02/29 01:27:16;;;;;;;20.70;9.63;;;;;;;;;;6271887;28;20045;-80
2024/02/29 01:30:19;;;;;;;16.88;9.38;;;;;;;;;;6268813;28;20556;-79
2024/02/29 01:33:21;;;;;;;17.70;9.95;;;;;;;;;;6246315;28;20067;-79
2024/02/29 01:36:23;;;;;;;19.08;10.93;;;;;;;;;;6248883;28;20048;-78
2024/02/29 01:39:26;;;;;;;25.65;10.15;;;;;;;;;;6270833;28;20044;-79
2024/02/29 01:42:29;;;;;;;17.50;9.60;;;;;;;;;;6262755;28;20045;-80
2024/02/29 01:45:31;;;;;;;15.98;10.52;;;;;;;;;;6280856;28;20048;-79
2024/02/29 01:48:33;;;;;;;25.13;10.57;;;;;;;;;;6267356;28;20544;-79
2024/02/29 01:51:36;;;;;;;18.38;10.75;;;;;;;;;;6259895;28;20036;-79
2024/02/29 01:54:39;;;;;;;23.10;12.35;;;;;;;;;;6249514;28;20052;-78
2024/02/29 01:57:41;;;;;;;18.40;10.05;;;;;;;;;;6242488;28;20090;-78
2024/02/29 02:00:44;;;;;;;22.75;11.70;;;;;;;;;;6231568;28;20052;-80
2024/02/29 02:03:46;;;;;;;26.92;13.68;;;;;;;;;;6229246;28;20048;-79
2024/02/29 02:06:49;;;;;;;27.58;13.77;;;;;;;;;;6261973;28;20064;-81
2024/02/29 02:09:52;;;;;;;24.38;12.95;;;;;;;;;;6261078;28;20553;-79
2024/02/29 02:12:55;;;;;;;26.90;13.20;;;;;;;;;;6283453;28;20045;-79
2024/02/29 02:15:57;;;;;;;25.88;14.70;;;;;;;;;;6268464;28;20091;-79
2024/02/29 02:18:59;;;;;;;24.60;13.10;;;;;;;;;;6261715;28;20057;-79
2024/02/29 02:22:04;;;;;;;24.20;12.80;;;;;;;;;;6270120;28;20037;-79
2024/02/29 02:25:06;;;;;;;23.27;12.80;;;;;;;;;;6259642;28;20048;-79
2024/02/29 02:28:09;;;;;;;24.05;12.68;;;;;;;;;;6271106;28;20068;-79
2024/02/29 02:31:12;;;;;;;25.98;14.27;;;;;;;;;;6259131;28;20060;-79
2024/02/29 02:34:16;;;;;;;24.70;14.30;;;;;;;;;;6267382;28;20049;-79
2024/02/29 02:37:18;;;;;;;31.00;14.23;;;;;;;;;;6248734;28;20059;-80
2024/02/29 02:40:20;;;;;;;29.42;13.57;;;;;;;;;;6263926;28;20055;-79
2024/02/29 02:43:22;;;;;;;25.25;13.73;;;;;;;;;;6264084;28;20445;-79
2024/02/29 02:46:27;;;;;;;22.08;11.13;;;;;;;;;;6246558;28;20044;-79
2024/02/29 02:49:29;;;;;;;25.15;12.65;;;;;;;;;;6259051;28;20040;-79
2024/02/29 02:52:31;;;;;;;25.88;13.23;;;;;;;;;;6253003;28;20052;-79
2024/02/29 02:55:33;;;;;;;22.65;11.63;;;;;;;;;;6254469;28;20047;-79
2024/02/29 02:58:35;;;;;;;23.67;11.95;;;;;;;;;;6267544;28;20078;-79
2024/02/29 03:01:38;;;;;;;22.05;11.73;;;;;;;;;;6245142;28;20045;-79
2024/02/29 03:04:43;;;;;;;24.77;11.40;;;;;;;;;;6263256;28;20051;-78
2024/02/29 03:07:47;;;;;;;22.33;11.80;;;;;;;;;;6223816;28;20059;-79
2024/02/29 03:10:50;;;;;;;21.77;10.93;;;;;;;;;;6263776;28;20068;-79
2024/02/29 03:13:53;;;;;;;21.20;11.30;;;;;;;;;;6272137;28;20083;-79
2024/02/29 03:16:57;;;;;;;23.85;11.63;;;;;;;;;;6223873;28;20044;-79
2024/02/29 03:19:59;;;;;;;20.60;11.50;;;;;;;;;;6261060;28;20572;-79
2024/02/29 03:23:03;;;;;;;25.25;12.52;;;;;;;;;;6241737;28;20041;-79
2024/02/29 03:26:05;;;;;;;23.33;11.63;;;;;;;;;;6259501;28;20052;-79
2024/02/29 03:29:08;;;;;;;24.38;12.25;;;;;;;;;;6262042;28;20044;-80
2024/02/29 03:32:12;;;;;;;18.20;11.63;;;;;;;;;;6261530;28;20037;-80
2024/02/29 03:35:17;;;;;;;19.75;10.70;;;;;;;;;;6274792;28;20037;-80
2024/02/29 03:38:21;;;;;;;18.38;11.68;;;;;;;;;;6242146;28;20540;-79
2024/02/29 03:41:23;;;;;;;21.42;10.15;;;;;;;;;;6263052;28;20048;-79
2024/02/29 03:44:26;;;;;;;19.10;10.05;;;;;;;;;;6276574;28;20075;-79
2024/02/29 03:47:30;;;;;;;20.10;9.38;;;;;;;;;;6246214;28;20044;-80
2024/02/29 03:50:33;;;;;;;18.65;10.13;;;;;;;;;;6259189;28;20130;-80
2024/02/29 03:53:35;;;;;;;20.75;13.70;;;;;;;;;;6258945;28;20040;-80
2024/02/29 03:56:38;;;;;;;21.85;12.10;;;;;;;;;;6261982;28;20040;-79
2024/02/29 03:59:46;;;;;;;17.30;11.90;;;;;;;;;;6240070;28;20060;-80
2024/02/29 04:02:49;;;;;;;28.80;14.30;;;;;;;;;;6260907;28;20036;-79
2024/02/29 04:05:52;;;;;;;26.05;12.32;;;;;;;;;;6262552;28;20071;-80
2024/02/29 04:08:55;;;;;;;24.00;12.55;;;;;;;;;;6247458;28;20045;-80
2024/02/29 04:12:00;;;;;;;24.83;11.82;;;;;;;;;;6277433;28;20048;-79
2024/02/29 04:15:03;;;;;;;22.98;11.43;;;;;;;;;;6265141;28;20045;-78
2024/02/29 04:18:07;;;;;;;19.98;11.60;;;;;;;;;;6264288;28;20511;-79
2024/02/29 04:21:09;;;;;;;20.73;10.45;;;;;;;;;;6278197;28;20045;-79
2024/02/29 04:24:12;;;;;;;19.27;12.43;;;;;;;;;;6228001;28;20951;-79
2024/02/29 04:27:14;;;;;;;17.92;10.35;;;;;;;;;;6237176;28;20052;-79
2024/02/29 04:30:18;;;;;;;19.75;11.88;;;;;;;;;;6247501;28;20048;-79
2024/02/29 04:33:20;;;;;;;20.73;11.00;;;;;;;;;;6248241;28;20193;-79
2024/02/29 04:36:23;;;;;;;25.58;12.07;;;;;;;;;;6260501;28;20729;-79
2024/02/29 04:39:26;;;;;;;21.20;11.65;;;;;;;;;;6281343;28;20044;-79
2024/02/29 04:42:28;;;;;;;18.67;11.27;;;;;;;;;;6268839;28;20070;-79
2024/02/29 04:45:30;;;;;;;24.33;11.80;;;;;;;;;;6264157;28;20048;-78
2024/02/29 04:48:33;;;;;;;23.60;11.68;;;;;;;;;;6261800;28;20494;-79
2024/02/29 04:51:36;;;;;;;18.75;10.18;;;;;;;;;;6262339;28;20068;-79
2024/02/29 04:54:38;;;;;;;23.05;10.55;;;;;;;;;;6246126;28;20040;-79
2024/02/29 04:57:41;;;;;;;23.42;10.48;;;;;;;;;;6266532;28;20105;-79
2024/02/29 05:00:43;;;;;;;17.15;10.75;;;;;;;;;;6237002;28;20489;-79
2024/02/29 05:03:45;;;;;;;22.88;12.45;;;;;;;;;;6284106;28;20044;-79
2024/02/29 05:06:49;;;;;;;17.40;11.05;;;;;;;;;;6246245;28;20052;-79
2024/02/29 05:09:57;;;;;;;19.35;11.30;;;;;;;;;;6279211;28;20061;-78
2024/02/29 05:12:59;;;;;;;22.40;11.35;;;;;;;;;;6281725;28;20064;-79
2024/02/29 05:16:05;;;;;;;23.02;12.23;;;;;;;;;;6264936;28;20083;-79
2024/02/29 05:19:08;;;;;;;22.00;14.38;;;;;;;;;;6259141;28;20796;-79
2024/02/29 05:22:11;;;;;;;22.83;15.00;;;;;;;;;;6234453;28;20103;-79
2024/02/29 05:25:14;;;;;;;36.95;17.13;;;;;;;;;;6264236;28;20238;-79
2024/02/29 05:28:16;;;;;;;27.48;16.35;;;;;;;;;;6264185;28;20611;-78
2024/02/29 05:31:20;;;;;;;27.45;15.00;;;;;;;;;;6245019;28;20044;-79
2024/02/29 05:34:24;;;;;;;30.70;15.07;;;;;;;;;;6244786;28;20151;-79
2024/02/29 05:37:26;;;;;;;25.27;13.95;;;;;;;;;;6247768;28;20123;-79
2024/02/29 05:40:29;;;;;;;22.65;14.18;;;;;;;;;;6249076;28;20149;-79
2024/02/29 05:43:33;;;;;;;19.83;10.60;;;;;;;;;;6251319;28;20175;-79
2024/02/29 05:46:37;;;;;;;39.58;17.63;;;;;;;;;;6250784;28;20059;-79
2024/02/29 05:49:39;;;;;;;49.67;28.00;;;;;;;;;;6242022;28;20102;-79
2024/02/29 05:52:41;;;;;;;23.08;14.45;;;;;;;;;;6262929;28;20052;-80
2024/02/29 05:55:44;;;;;;;27.42;14.88;;;;;;;;;;6284442;28;20043;-80
2024/02/29 05:58:46;;;;;;;25.13;14.20;;;;;;;;;;6282784;28;20074;-79
2024/02/29 06:01:49;;;;;;;24.67;11.82;;;;;;;;;;6283201;28;20461;-79
2024/02/29 06:04:51;;;;;;;21.58;12.50;;;;;;;;;;6260109;28;20041;-79
2024/02/29 06:07:55;;;;;;;18.77;12.57;;;;;;;;;;6292364;28;20039;-79
2024/02/29 06:10:57;;;;;;;24.45;14.57;;;;;;;;;;6285800;28;20040;-78
2024/02/29 06:14:02;;;;;;;26.02;14.13;;;;;;;;;;6286520;28;20078;-77
2024/02/29 06:17:05;;;;;;;24.58;12.45;;;;;;;;;;6248136;28;20825;-78
2024/02/29 06:20:10;;;;;;;24.58;16.67;;;;;;;;;;6260124;28;20044;-78
2024/02/29 06:23:12;;;;;;;24.92;14.13;;;;;;;;;;6247088;28;20033;-79
2024/02/29 06:26:15;;;;;;;29.42;14.15;;;;;;;;;;6260808;28;20081;-78
2024/02/29 06:29:18;;;;;;;29.63;15.30;;;;;;;;;;6266484;28;20516;-79
2024/02/29 06:32:22;;;;;;;27.65;14.88;;;;;;;;;;6284676;28;20040;-79
2024/02/29 06:35:25;;;;;;;25.27;15.45;;;;;;;;;;6280397;28;20029;-79
2024/02/29 06:38:27;;;;;;;25.20;14.90;;;;;;;;;;6244251;28;20163;-79
2024/02/29 06:41:29;;;;;;;22.05;13.80;;;;;;;;;;6279729;28;20117;-79
2024/02/29 06:44:32;;;;;;;24.90;13.35;;;;;;;;;;6261252;28;20037;-79
2024/02/29 06:47:35;;;;;;;24.05;13.65;;;;;;;;;;6231650;28;20064;-80
2024/02/29 06:50:37;;;;;;;23.02;14.13;;;;;;;;;;6245937;28;20109;-79
2024/02/29 06:53:42;;;;;;;26.88;12.70;;;;;;;;;;6260228;28;20052;-80
2024/02/29 06:56:45;;;;;;;;;;;;;;;;;;6264789;28;20843;-80
2024/02/29 06:59:49;;;;;;;28.67;13.90;;;;;;;;;;6248524;28;20065;-79
2024/02/29 07:03:00;;;;;;;30.20;15.02;;;;;;;;;;6265266;28;20056;-79
2024/02/29 07:06:04;;;;;;;30.27;16.05;;;;;;;;;;6263503;28;20044;-79
2024/02/29 07:09:07;;;;;;;30.13;16.40;;;;;;;;;;6271219;28;20433;-80
2024/02/29 07:12:10;;;;;;;31.90;16.85;;;;;;;;;;6259541;28;20048;-79
2024/02/29 07:15:13;;;;;;;25.25;14.93;;;;;;;;;;6244795;28;20218;-79
2024/02/29 07:18:15;;;;;;;28.73;14.05;;;;;;;;;;6248098;28;20569;-79
2024/02/29 07:21:17;;;;;;;32.40;19.63;;;;;;;;;;6261403;28;22235;-79
2024/02/29 07:24:20;;;;;;;29.45;15.18;;;;;;;;;;6270283;28;20461;-80
2024/02/29 07:27:22;;;;;;;25.48;14.95;;;;;;;;;;6260298;28;20044;-80
2024/02/29 07:30:26;;;;;;;31.17;15.85;;;;;;;;;;6255523;28;20060;-80
2024/02/29 07:33:31;;;;;;;30.40;15.55;;;;;;;;;;6266259;28;20151;-78
2024/02/29 07:36:34;;;;;;;30.00;14.77;;;;;;;;;;6250203;28;20036;-79
2024/02/29 07:39:45;;;;;;;29.55;15.60;;;;;;;;;;6265800;28;20117;-79
2024/02/29 07:42:47;;;;;;;29.98;14.85;;;;;;;;;;6274905;28;20544;-81
2024/02/29 07:45:50;;;;;;;26.13;15.07;;;;;;;;;;6291061;28;20044;-79
2024/02/29 07:48:54;;;;;;;26.83;14.95;;;;;;;;;;6305876;28;20544;-79
2024/02/29 07:51:56;;;;;;;23.30;12.77;;;;;;;;;;6234372;28;20433;-81
2024/02/29 07:54:59;;;;;;;24.63;16.30;;;;;;;;;;6281893;28;20113;-80
2024/02/29 07:58:03;;;;;;;25.70;14.27;;;;;;;;;;6247168;28;20466;-80
2024/02/29 08:01:05;;;;;;;31.58;16.73;;;;;;;;;;6240116;28;20056;-81
2024/02/29 08:04:07;;;;;;;36.35;16.10;;;;;;;;;;6223939;28;20044;-80
2024/02/29 08:07:12;;;;;;;27.23;16.10;;;;;;;;;;6224768;28;20033;-80
2024/02/29 08:10:16;;;;;;;31.67;17.83;;;;;;;;;;6273228;28;20441;-83
2024/02/29 08:13:19;;;;;;;25.17;16.60;;;;;;;;;;6256993;28;20044;-81
2024/02/29 08:16:23;;;;;;;27.00;14.25;;;;;;;;;;6317176;28;20082;-81
2024/02/29 08:19:26;;;;;;;29.33;15.52;;;;;;;;;;6253185;28;20127;-80
2024/02/29 08:22:29;;;;;;;23.00;14.85;;;;;;;;;;6265138;28;20048;-80
2024/02/29 08:25:31;;;;;;;30.55;17.27;;;;;;;;;;6238185;28;20044;-80
2024/02/29 08:28:33;;;;;;;28.00;13.57;;;;;;;;;;6254717;28;20170;-80
2024/02/29 08:31:36;;;;;;;26.67;16.25;;;;;;;;;;6284021;28;20052;-80
2024/02/29 08:34:39;;;;;;;30.50;14.23;;;;;;;;;;6245924;28;20510;-80
2024/02/29 08:37:44;;;;;;;26.30;13.40;;;;;;;;;;6265784;28;20098;-80
2024/02/29 08:40:46;;;;;;;20.00;13.43;;;;;;;;;;6250530;28;20060;-80
2024/02/29 08:43:48;;;;;;;23.35;14.80;;;;;;;;;;6251283;28;20183;-81
2024/02/29 08:46:50;;;;;;;24.17;14.38;;;;;;;;;;6267956;28;20078;-81
2024/02/29 08:49:57;;;;;;;32.38;16.35;;;;;;;;;;6257176;28;20175;-81
2024/02/29 08:53:00;;;;;;;28.15;15.68;;;;;;;;;;6236376;28;20040;-80
2024/02/29 08:56:03;;;;;;;33.45;18.98;;;;;;;;;;6254016;28;20056;-80
2024/02/29 08:59:06;;;;;;;29.88;18.58;;;;;;;;;;6237683;28;20053;-81
2024/02/29 09:02:09;;;;;;;30.23;15.35;;;;;;;;;;6248081;28;20059;-79
2024/02/29 09:05:15;;;;;;;31.33;16.40;;;;;;;;;;6287754;28;20055;-80
2024/02/29 09:08:17;;;;;;;20.05;12.63;;;;;;;;;;6285045;28;20063;-80
2024/02/29 09:11:24;;;;;;;24.20;12.30;;;;;;;;;;6263258;28;20079;-81
2024/02/29 09:14:26;;;;;;;26.27;13.43;;;;;;;;;;6266311;28;20056;-81
2024/02/29 09:17:29;;;;;;;27.70;15.02;;;;;;;;;;6251148;28;20130;-81
2024/02/29 09:20:31;;;;;;;26.27;13.35;;;;;;;;;;6254494;28;20044;-81
2024/02/29 09:23:35;;;;;;;23.83;13.18;;;;;;;;;;6260241;28;20040;-82
2024/02/29 09:26:41;;;;;;;22.33;12.77;;;;;;;;;;6249464;28;20822;-80
2024/02/29 09:39:50;;;;;;;24.92;13.40;;;;;;;;;;6281878;27;1403952;-83
2024/02/29 09:42:58;;;;;;;27.33;14.73;;;;;;;;;;6283564;28;20359;-82
2024/02/29 09:46:02;;;;;;;24.85;13.52;;;;;;;;;;6259793;28;20075;-82
2024/02/29 09:49:05;;;;;;;23.25;14.40;;;;;;;;;;6322535;28;20048;-82
2024/02/29 09:52:08;;;;;;;21.05;12.65;;;;;;;;;;6275558;28;20052;-82
2024/02/29 09:55:13;;;;;;;27.58;15.23;;;;;;;;;;6283713;28;20044;-82
2024/02/29 09:58:20;;;;;;;23.38;13.35;;;;;;;;;;6275869;28;20052;-82
2024/02/29 10:01:24;;;;;;;26.15;13.52;;;;;;;;;;6270698;28;20101;-82
2024/02/29 10:04:26;;;;;;;22.48;12.50;;;;;;;;;;6300447;28;20842;-83
2024/02/29 10:07:31;;;;;;;24.00;12.73;;;;;;;;;;6274117;28;20367;-82
2024/02/29 10:10:34;;;;;;;24.65;12.82;;;;;;;;;;6249994;28;20051;-82
2024/02/29 10:13:37;;;;;;;24.35;12.88;;;;;;;;;;6269407;28;20159;-82
2024/02/29 10:16:40;;;;;;;20.67;11.65;;;;;;;;;;6281083;28;20143;-82
2024/02/29 10:19:42;;;;;;;21.73;13.20;;;;;;;;;;6254014;28;20568;-82
2024/02/29 10:22:45;;;;;;;20.05;12.73;;;;;;;;;;6286754;28;20046;-82
2024/02/29 10:25:51;;;;;;;21.50;11.38;;;;;;;;;;6274676;28;20044;-84
2024/02/29 10:29:02;;;;;;;24.33;13.38;;;;;;;;;;6281517;28;20044;-84
2024/02/29 10:32:07;;;;;;;23.88;13.48;;;;;;;;;;6304932;28;20125;-85
2024/02/29 10:35:20;;;;;;;20.20;13.13;;;;;;;;;;6264357;28;20132;-82
2024/02/29 10:38:22;;;;;;;25.70;13.35;;;;;;;;;;6294529;28;20071;-83
2024/02/29 10:41:30;;;;;;;23.15;13.40;;;;;;;;;;6283975;28;20040;-86
2024/02/29 10:44:35;;;;;;;22.35;14.15;;;;;;;;;;6268099;28;20044;-86
2024/02/29 10:47:39;;;;;;;24.45;12.73;;;;;;;;;;6297276;28;20462;-85
2024/02/29 10:51:06;;;;;;;22.08;13.25;;;;;;;;;;6274151;28;20533;-85
2024/02/29 10:54:11;;;;;;;30.00;14.70;;;;;;;;;;6255475;28;20048;-85
2024/02/29 10:57:15;;;;;;;22.85;13.65;;;;;;;;;;6265764;28;20053;-85
2024/02/29 11:00:18;;;;;;;26.88;14.93;;;;;;;;;;6251804;28;20093;-86
2024/02/29 11:03:21;;;;;;;25.33;13.70;;;;;;;;;;6238882;28;20048;-86
2024/02/29 11:06:23;;;;;;;23.38;12.48;;;;;;;;;;6262263;28;20078;-85
2024/02/29 11:09:32;;;;;;;20.95;13.75;;;;;;;;;;6262237;28;20032;-85
2024/02/29 11:12:44;;;;;;;24.92;12.45;;;;;;;;;;6222457;28;20053;-86
2024/02/29 11:15:50;;;;;;;18.88;11.73;;;;;;;;;;6234181;28;20049;-86
2024/02/29 11:19:03;;;;;;;25.20;12.95;;;;;;;;;;6238569;28;20047;-86
2024/02/29 11:22:13;;;;;;;19.08;11.77;;;;;;;;;;6268695;28;20190;-85
2024/02/29 11:25:20;;;;;;;21.02;12.82;;;;;;;;;;6249803;28;20057;-86
2024/02/29 11:28:33;;;;;;;20.40;12.40;;;;;;;;;;6225365;28;20051;-85
2024/02/29 11:31:56;;;;;;;22.65;12.25;;;;;;;;;;6238822;28;20040;-85
2024/02/29 11:34:58;;;;;;;19.23;13.30;;;;;;;;;;6247338;28;20040;-85
2024/02/29 11:38:02;;;;;;;20.00;10.85;;;;;;;;;;6245224;28;20041;-85
2024/02/29 11:41:17;;;;;;;20.95;13.15;;;;;;;;;;6276912;28;20052;-85
2024/02/29 11:44:19;;;;;;;22.13;11.27;;;;;;;;;;6239108;28;20056;-84
2024/02/29 11:47:21;;;;;;;21.42;12.73;;;;;;;;;;6261987;28;20044;-83
2024/02/29 11:50:25;;;;;;;16.48;11.57;;;;;;;;;;6243791;28;20052;-82
2024/02/29 11:53:29;;;;;;;21.33;10.35;;;;;;;;;;6264500;28;20118;-83
2024/02/29 11:56:32;;;;;;;23.52;11.48;;;;;;;;;;6264104;28;20045;-84
2024/02/29 11:59:37;;;;;;;15.60;10.15;;;;;;;;;;6275609;28;20561;-84
2024/02/29 12:02:45;;;;;;;17.45;9.88;;;;;;;;;;6243022;28;20501;-83
2024/02/29 12:05:48;;;;;;;17.45;10.68;;;;;;;;;;6292755;28;20049;-84
2024/02/29 12:08:53;;;;;;;19.33;10.45;;;;;;;;;;6252800;28;20033;-84
2024/02/29 12:11:57;;;;;;;19.30;10.15;;;;;;;;;;6251380;28;20044;-83
2024/02/29 12:14:59;;;;;;;14.80;9.00;;;;;;;;;;6223676;28;20128;-83
2024/02/29 12:18:06;;;;;;;18.60;10.40;;;;;;;;;;6258756;28;20037;-83
2024/02/29 12:21:10;;;;;;;16.95;9.05;;;;;;;;;;6269208;28;20411;-83
2024/02/29 12:24:13;;;;;;;13.45;8.68;;;;;;;;;;6247067;28;20213;-84
2024/02/29 12:27:17;;;;;;;21.25;9.73;;;;;;;;;;6275842;28;20048;-83
2024/02/29 12:30:20;;;;;;;22.70;10.48;;;;;;;;;;6251839;28;20844;-83
2024/02/29 12:33:26;;;;;;;16.52;11.02;;;;;;;;;;6272066;28;20052;-83
2024/02/29 12:36:31;;;;;;;16.45;9.23;;;;;;;;;;6243323;28;20044;-83
2024/02/29 12:39:34;;;;;;;14.70;9.05;;;;;;;;;;6239234;28;20053;-83
2024/02/29 12:42:36;;;;;;;14.30;10.95;;;;;;;;;;6262928;28;20649;-83
2024/02/29 12:45:42;;;;;;;15.00;9.77;;;;;;;;;;6267461;28;20049;-83
2024/02/29 12:48:46;;;;;;;16.10;8.65;;;;;;;;;;6262336;28;20041;-83
2024/02/29 12:51:50;;;;;;;13.90;7.75;;;;;;;;;;6268207;28;20052;-83
2024/02/29 12:54:57;;;;;;;13.75;7.65;;;;;;;;;;6257943;28;20057;-83
2024/02/29 12:57:59;;;;;;;16.25;10.25;;;;;;;;;;6257503;28;20477;-83
2024/02/29 13:01:06;;;;;;;13.45;8.23;;;;;;;;;;6259500;28;20048;-83
2024/02/29 13:04:10;;;;;;;15.98;9.35;;;;;;;;;;6252412;28;20056;-83
2024/02/29 13:07:16;;;;;;;14.38;8.57;;;;;;;;;;6266603;28;20041;-83
2024/02/29 13:10:22;;;;;;;14.55;9.20;;;;;;;;;;6271523;28;20056;-83
2024/02/29 13:13:25;;;;;;;14.52;9.13;;;;;;;;;;6271004;28;20040;-83
2024/02/29 13:16:28;;;;;;;15.18;8.77;;;;;;;;;;6252931;28;20052;-83
2024/02/29 13:19:30;;;;;;;11.55;8.40;;;;;;;;;;6240471;28;20072;-83
2024/02/29 13:22:33;;;;;;;15.30;7.88;;;;;;;;;;6276661;28;20128;-83
2024/02/29 13:25:36;;;;;;;16.77;8.25;;;;;;;;;;6256728;28;20059;-83
2024/02/29 13:28:39;;;;;;;13.93;9.00;;;;;;;;;;6235980;28;20049;-83
2024/02/29 13:31:42;;;;;;;11.55;7.43;;;;;;;;;;6263936;28;20044;-83
2024/02/29 13:34:45;;;;;;;14.88;8.52;;;;;;;;;;6271820;28;20474;-84
2024/02/29 13:37:49;;;;;;;11.52;7.97;;;;;;;;;;6283317;28;20048;-83
2024/02/29 13:40:52;;;;;;;14.98;7.30;;;;;;;;;;6287983;28;20086;-83
2024/02/29 13:43:55;;;;;;;15.52;9.05;;;;;;;;;;6255424;28;20063;-83
2024/02/29 13:46:58;;;;;;;12.52;9.50;;;;;;;;;;6277240;28;20052;-83
2024/02/29 13:50:00;;;;;;;12.27;8.43;;;;;;;;;;6237618;28;20063;-85
2024/02/29 13:53:04;;;;;;;14.98;8.45;;;;;;;;;;6292964;28;20049;-82
2024/02/29 14:00:38;;;;;;;15.07;8.18;;;;;;;;;;6282148;27;1414583;-80
2024/02/29 14:03:40;;;;;;;14.38;7.20;;;;;;;;;;6297280;28;20047;-78
2024/02/29 14:06:43;;;;;;;12.98;8.68;;;;;;;;;;6295591;28;20044;-80
2024/02/29 14:09:46;;;;;;;14.02;7.10;;;;;;;;;;6283560;28;20295;-80
2024/02/29 14:12:48;;;;;;;11.85;7.80;;;;;;;;;;6304256;28;20051;-79
2024/02/29 14:15:50;;;;;;;10.55;5.85;;;;;;;;;;6298947;28;20094;-79
2024/02/29 14:18:53;;;;;;;12.73;7.82;;;;;;;;;;6300392;28;20050;-82
2024/02/29 14:22:02;;;;;;;12.65;8.35;;;;;;;;;;6291369;28;20052;-79
2024/02/29 14:25:05;;;;;;;15.32;6.65;;;;;;;;;;6301463;28;20063;-79
2024/02/29 14:28:08;;;;;;;16.42;7.80;;;;;;;;;;6299471;28;20182;-81
2024/02/29 14:31:10;;;;;;;12.77;7.40;;;;;;;;;;6303412;28;20253;-78
2024/02/29 14:34:13;;;;;;;12.30;7.10;;;;;;;;;;6279437;28;20480;-81
2024/02/29 14:37:16;;;;;;;12.63;7.38;;;;;;;;;;6311137;28;20513;-80
2024/02/29 14:40:19;;;;;;;16.02;8.50;;;;;;;;;;6294532;28;20037;-79
2024/02/29 14:43:22;;;;;;;16.02;8.57;;;;;;;;;;6290712;28;20135;-80
2024/02/29 14:46:24;;;;;;;16.33;8.15;;;;;;;;;;6282686;28;20070;-83
2024/02/29 14:49:27;;;;;;;13.68;8.35;;;;;;;;;;6306417;28;20505;-81
2024/02/29 14:52:38;;;;;;;14.40;8.02;;;;;;;;;;6309966;28;20051;-79
2024/02/29 14:55:44;;;;;;;19.10;9.18;;;;;;;;;;6274504;28;20040;-78
2024/02/29 14:58:46;;;;;;;11.82;8.80;;;;;;;;;;6319171;28;20139;-80
2024/02/29 15:01:50;;;;;;;15.23;8.55;;;;;;;;;;6273220;28;20543;-77
2024/02/29 15:04:53;;;;;;;12.25;8.13;;;;;;;;;;6309717;28;20040;-80
2024/02/29 15:07:57;;;;;;;13.57;8.00;;;;;;;;;;6296172;28;20068;-78
2024/02/29 15:11:00;;;;;;;14.63;9.63;;;;;;;;;;6305640;28;20047;-78
2024/02/29 15:14:02;;;;;;;13.13;8.27;;;;;;;;;;6257562;28;20248;-82
2024/02/29 15:17:05;;;;;;;12.98;8.27;;;;;;;;;;6266724;28;20074;-79
2024/02/29 15:20:08;;;;;;;15.85;8.07;;;;;;;;;;6287061;28;20581;-79
2024/02/29 15:23:11;;;;;;;16.83;9.18;;;;;;;;;;6263189;28;20044;-79
2024/02/29 15:26:15;;;;;;;16.05;9.68;;;;;;;;;;6278148;28;20040;-79
2024/02/29 15:29:18;;;;;;;15.57;8.65;;;;;;;;;;6274630;28;20729;-82
2024/02/29 15:32:20;;;;;;;20.00;10.18;;;;;;;;;;6293566;28;20048;-79
2024/02/29 15:35:23;;;;;;;17.20;11.77;;;;;;;;;;6279395;28;20621;-80
2024/02/29 15:38:25;;;;;;;15.98;9.65;;;;;;;;;;6301137;28;20126;-79
2024/02/29 15:41:28;;;;;;;16.50;10.15;;;;;;;;;;6283843;28;20044;-78
2024/02/29 15:44:30;;;;;;;17.83;10.80;;;;;;;;;;6285957;28;20809;-79
2024/02/29 15:47:33;;;;;;;19.95;12.10;;;;;;;;;;6259428;28;20590;-78
2024/02/29 15:50:37;;;;;;;24.95;15.25;;;;;;;;;;6274260;28;20552;-80
2024/02/29 15:53:40;;;;;;;23.23;12.13;;;;;;;;;;6275870;28;20540;-78
2024/02/29 15:56:42;;;;;;;20.40;13.98;;;;;;;;;;6283907;28;20040;-79
2024/02/29 15:59:46;;;;;;;25.08;14.68;;;;;;;;;;6274567;28;20048;-78
2024/02/29 16:03:10;;;;;;;31.35;17.88;;;;;;;;;;6289870;28;20763;-78
2024/02/29 16:06:13;;;;;;;29.92;16.20;;;;;;;;;;6309590;28;20133;-77
2024/02/29 16:09:16;;;;;;;31.70;19.23;;;;;;;;;;6239883;28;20102;-75
2024/02/29 16:12:20;;;;;;;49.78;28.35;;;;;;;;;;6276508;28;20117;-83
2024/02/29 16:15:24;;;;;;;27.27;15.10;;;;;;;;;;6252948;28;20048;-84
2024/02/29 16:18:29;;;;;;;27.60;16.63;;;;;;;;;;6300787;28;20064;-81
2024/02/29 16:21:32;;;;;;;26.35;14.82;;;;;;;;;;6275771;28;20139;-82
2024/02/29 16:24:37;;;;;;;24.25;12.98;;;;;;;;;;6302356;28;20127;-80
2024/02/29 16:27:40;;;;;;;23.35;10.88;;;;;;;;;;6282316;28;20127;-76
2024/02/29 16:30:42;;;;;;;23.38;15.10;;;;;;;;;;6259927;28;20528;-78
2024/02/29 16:33:45;;;;;;;18.73;11.82;;;;;;;;;;6270092;28;20040;-79
2024/02/29 16:36:49;;;;;;;21.20;12.25;;;;;;;;;;6266414;28;20052;-79
2024/02/29 16:39:52;;;;;;;21.38;13.43;;;;;;;;;;6274443;28;20052;-78
2024/02/29 16:42:56;;;;;;;21.58;12.05;;;;;;;;;;6274013;28;20204;-78
2024/02/29 16:46:07;;;;;;;18.38;11.07;;;;;;;;;;6295665;28;20060;-79
2024/02/29 16:49:34;;;;;;;20.67;12.00;;;;;;;;;;6294892;28;20040;-78
2024/02/29 16:52:37;;;;;;;19.52;11.70;;;;;;;;;;6278198;28;20056;-78
2024/02/29 16:55:39;;;;;;;24.05;14.98;;;;;;;;;;6281706;28;20636;-78
2024/02/29 16:58:41;;;;;;;20.58;12.35;;;;;;;;;;6275423;28;20059;-78
2024/02/29 17:01:45;;;;;;;24.35;12.95;;;;;;;;;;6266386;28;20177;-79
2024/02/29 17:04:49;;;;;;;25.83;14.30;;;;;;;;;;6266037;28;20044;-78
2024/02/29 17:07:55;;;;;;;28.10;14.88;;;;;;;;;;6302610;28;20052;-78
2024/02/29 17:11:03;;;;;;;31.85;16.73;;;;;;;;;;6250339;28;20056;-79
2024/02/29 17:14:07;;;;;;;28.35;17.20;;;;;;;;;;6278109;28;20651;-78
2024/02/29 17:17:10;;;;;;;27.48;14.27;;;;;;;;;;6258884;28;20055;-77
2024/02/29 17:20:13;;;;;;;22.95;12.70;;;;;;;;;;6257149;28;20055;-78
2024/02/29 17:23:20;;;;;;;27.33;14.10;;;;;;;;;;6277609;28;20784;-78
2024/02/29 17:26:22;;;;;;;20.67;13.32;;;;;;;;;;6268668;28;20059;-77
2024/02/29 17:29:24;;;;;;;22.25;12.32;;;;;;;;;;6288063;28;20044;-78
2024/02/29 17:32:26;;;;;;;22.23;13.15;;;;;;;;;;6274700;28;20736;-78
2024/02/29 17:35:29;;;;;;;23.95;13.18;;;;;;;;;;6279184;28;20057;-78
2024/02/29 17:38:31;;;;;;;22.77;12.60;;;;;;;;;;6250719;28;20070;-78
2024/02/29 17:41:34;;;;;;;23.23;11.98;;;;;;;;;;6252159;28;20052;-78
2024/02/29 17:44:38;;;;;;;22.80;12.80;;;;;;;;;;6264197;28;20137;-78
2024/02/29 17:47:42;;;;;;;20.90;13.30;;;;;;;;;;6264822;28;20537;-77
2024/02/29 17:50:44;;;;;;;24.45;13.40;;;;;;;;;;6276487;28;20047;-78
2024/02/29 17:53:49;;;;;;;23.30;12.90;;;;;;;;;;6277501;28;20515;-77
2024/02/29 17:56:52;;;;;;;26.25;15.90;;;;;;;;;;6250348;28;20060;-79
2024/02/29 17:59:54;;;;;;;25.25;15.50;;;;;;;;;;6266357;28;20047;-79
2024/02/29 18:02:59;;;;;;;30.02;16.05;;;;;;;;;;6261155;28;20568;-77
2024/02/29 18:06:04;;;;;;;24.83;16.65;;;;;;;;;;6278771;28;20103;-78
2024/02/29 18:09:06;;;;;;;24.52;15.38;;;;;;;;;;6266385;28;20118;-77